createdAt,value
2023-05-24T00:04:30.294Z,19.37
2023-05-24T00:09:33.209Z,19.27
2023-05-24T00:14:35.438Z,19.20
2023-05-24T00:19:38.516Z,19.13
2023-05-24T00:24:44.289Z,19.07
2023-05-24T00:29:46.702Z,19.05
2023-05-24T00:34:50.435Z,19.00
2023-05-24T00:39:52.834Z,18.99
2023-05-24T00:44:54.901Z,18.98
2023-05-24T00:49:57.211Z,18.95
2023-05-24T00:54:59.427Z,18.86
2023-05-24T02:05:21.731Z,18.42
2023-05-24T02:10:23.862Z,18.40
2023-05-24T02:15:30.582Z,18.37
2023-05-24T02:22:27.793Z,18.34
2023-05-24T02:27:29.960Z,18.32
2023-05-24T02:32:33.122Z,18.29
2023-05-24T02:37:35.270Z,18.28
2023-05-24T02:42:37.307Z,18.27
2023-05-24T02:47:39.398Z,18.26
2023-05-24T02:52:42.276Z,18.25
2023-05-24T02:57:44.350Z,18.24
2023-05-24T03:02:47.955Z,18.20
2023-05-24T03:07:52.991Z,18.14
2023-05-24T03:12:57.802Z,18.11
2023-05-24T03:18:00.196Z,18.07
2023-05-24T03:23:02.372Z,18.04
2023-05-24T03:28:07.463Z,18.02
2023-05-24T03:33:09.763Z,17.98
2023-05-24T03:38:11.881Z,17.95
2023-05-24T03:43:19.716Z,17.93
2023-05-24T03:48:31.607Z,17.90
2023-05-24T03:53:37.193Z,17.88
2023-05-24T03:58:39.281Z,17.86
2023-05-24T04:03:41.538Z,17.82
2023-05-24T04:08:53.334Z,17.81
2023-05-24T04:13:56.355Z,17.80
2023-05-24T04:19:02.129Z,17.80
2023-05-24T04:24:05.236Z,17.82
2023-05-24T04:29:07.920Z,17.83
2023-05-24T04:34:13.251Z,17.82
2023-05-24T04:39:15.866Z,17.86
2023-05-24T04:44:17.927Z,17.87
2023-05-24T04:49:20.054Z,17.87
2023-05-24T04:54:22.087Z,17.94
2023-05-24T04:59:24.575Z,17.96
2023-05-24T05:04:26.749Z,17.98
2023-05-24T05:09:28.679Z,18.01
2023-05-24T05:14:30.477Z,18.04
2023-05-24T05:19:32.501Z,18.09
2023-05-24T05:24:35.093Z,18.13
2023-05-24T05:29:37.201Z,18.18
2023-05-24T05:34:39.196Z,18.24
2023-05-24T05:39:41.100Z,18.30
2023-05-24T05:44:43.224Z,18.34
2023-05-24T05:49:45.700Z,18.39
2023-05-24T05:54:47.720Z,18.45
2023-05-24T05:59:50.200Z,18.52
2023-05-24T06:04:52.404Z,18.61
2023-05-24T06:09:57.326Z,18.70
2023-05-24T06:14:59.642Z,18.82
2023-05-24T06:20:01.750Z,18.93
2023-05-24T06:25:05.422Z,19.03
2023-05-24T06:30:08.917Z,19.12
2023-05-24T06:35:11.493Z,19.22
2023-05-24T06:40:13.520Z,19.41
2023-05-24T06:45:16.068Z,19.64
2023-05-24T06:50:18.736Z,19.92
2023-05-24T06:55:21.326Z,20.22
2023-05-24T07:00:23.394Z,20.48
2023-05-24T07:05:25.559Z,20.74
2023-05-24T07:10:27.576Z,21.03
2023-05-24T07:15:29.750Z,21.30
2023-05-24T07:20:31.721Z,21.54
2023-05-24T07:25:34.005Z,21.77
2023-05-24T07:30:36.018Z,21.97
2023-05-24T07:35:38.673Z,22.18
2023-05-24T07:40:40.837Z,22.39
2023-05-24T07:45:43.322Z,22.66
2023-05-24T07:50:48.810Z,22.88
2023-05-24T07:55:51.840Z,23.06
2023-05-24T08:00:54.449Z,23.22
2023-05-24T08:05:56.520Z,23.39
2023-05-24T08:10:58.480Z,23.54
2023-05-24T08:16:00.677Z,23.65
2023-05-24T08:21:02.809Z,23.80
2023-05-24T08:26:04.929Z,24.04
2023-05-24T08:31:07.413Z,24.19
2023-05-24T08:36:10.056Z,24.30
2023-05-24T08:41:12.353Z,24.44
2023-05-24T08:46:18.143Z,24.64
2023-05-24T08:51:20.724Z,24.82
2023-05-24T08:56:23.315Z,24.89
2023-05-24T09:01:27.148Z,24.91
2023-05-24T09:06:30.993Z,25.02
2023-05-24T09:11:34.206Z,25.07
2023-05-24T09:16:36.672Z,25.16
2023-05-24T09:21:38.625Z,25.32
2023-05-24T09:26:41.073Z,25.50
2023-05-24T09:31:43.246Z,25.51
2023-05-24T09:36:47.236Z,25.48
2023-05-24T09:41:57.431Z,25.21
2023-05-24T09:47:06.736Z,25.01
2023-05-24T09:52:09.011Z,25.08
2023-05-24T09:57:11.289Z,25.28
2023-05-24T10:02:13.472Z,25.53
2023-05-24T10:07:16.538Z,25.49
2023-05-24T10:12:23.279Z,25.51
2023-05-24T10:17:28.901Z,25.57
2023-05-24T10:22:32.817Z,25.52
2023-05-24T10:27:36.556Z,25.26
2023-05-24T10:32:39.998Z,25.03
2023-05-24T10:37:49.202Z,24.82
2023-05-24T10:42:55.735Z,24.73
2023-05-24T10:48:00.987Z,24.59
2023-05-24T10:53:12.726Z,24.60
2023-05-24T10:58:31.471Z,24.61
2023-05-24T11:03:33.927Z,24.72
2023-05-24T11:08:47.245Z,24.72
2023-05-24T11:13:49.574Z,24.54
2023-05-24T11:19:16.817Z,24.33
2023-05-24T11:24:23.105Z,24.38
2023-05-24T11:29:25.236Z,24.29
2023-05-24T11:34:30.148Z,24.24
2023-05-24T11:39:39.506Z,24.20
2023-05-24T11:44:41.885Z,24.20
2023-05-24T11:49:44.090Z,24.09
2023-05-24T11:54:46.235Z,24.09
2023-05-24T11:59:48.505Z,24.19
2023-05-24T12:04:50.509Z,24.36
2023-05-24T12:09:53.496Z,24.30
2023-05-24T12:14:56.821Z,24.44
2023-05-24T12:19:59.000Z,24.37
2023-05-24T12:25:01.446Z,24.21
2023-05-24T12:30:07.690Z,24.24
2023-05-24T12:35:11.704Z,24.39
2023-05-24T12:40:21.452Z,24.23
2023-05-24T12:45:26.127Z,24.07
2023-05-24T12:50:28.946Z,24.22
2023-05-24T12:55:33.632Z,24.46
2023-05-24T13:00:36.043Z,24.37
2023-05-24T13:05:38.198Z,24.12
2023-05-24T13:10:41.008Z,23.94
2023-05-24T13:15:44.676Z,23.54
2023-05-24T13:20:47.095Z,23.45
2023-05-24T13:25:49.904Z,23.36
2023-05-24T13:30:53.476Z,23.43
2023-05-24T13:35:56.224Z,23.40
2023-05-24T13:40:58.465Z,23.47
2023-05-24T13:46:01.062Z,23.38
2023-05-24T13:51:03.867Z,23.33
2023-05-24T13:56:06.199Z,23.19
2023-05-24T14:01:09.138Z,23.10
2023-05-24T14:06:11.478Z,22.98
2023-05-24T14:11:14.676Z,22.85
2023-05-24T14:16:19.063Z,22.82
2023-05-24T14:21:27.034Z,22.71
2023-05-24T14:26:29.797Z,22.53
2023-05-24T14:31:33.684Z,22.49
2023-05-24T14:36:36.636Z,22.54
2023-05-24T14:41:47.979Z,22.40
2023-05-24T18:30:09.716Z,22.11
2023-05-24T18:35:13.756Z,22.09
2023-05-24T18:40:16.784Z,22.09
2023-05-24T18:45:18.975Z,22.08
2023-05-24T18:50:23.531Z,22.05
2023-05-24T18:55:25.732Z,21.99
2023-05-24T19:00:27.951Z,21.93
2023-05-24T19:05:30.079Z,21.87
2023-05-24T19:10:32.276Z,21.81
2023-05-24T19:15:37.816Z,21.76
2023-05-24T19:20:47.400Z,21.71
2023-05-24T19:25:50.464Z,21.70
2023-05-24T19:30:52.625Z,21.66
2023-05-24T19:35:54.881Z,21.63
2023-05-24T19:40:57.726Z,21.57
2023-05-24T19:46:12.106Z,21.55
2023-05-24T19:51:15.756Z,21.52
2023-05-24T19:56:17.922Z,21.51
2023-05-24T20:01:22.340Z,21.48
2023-05-24T20:06:24.545Z,21.43
2023-05-24T20:11:26.770Z,21.38
2023-05-24T20:16:30.187Z,21.37
2023-05-24T20:21:33.910Z,21.33
2023-05-24T20:26:37.086Z,21.29
2023-05-24T20:31:39.347Z,21.25
2023-05-24T20:36:43.442Z,21.21
2023-05-24T20:41:49.718Z,21.18
2023-05-24T20:46:51.827Z,21.17
2023-05-24T20:51:56.972Z,21.15
2023-05-24T20:56:59.773Z,21.14
2023-05-24T21:02:01.787Z,21.12
2023-05-24T21:07:04.035Z,21.09
2023-05-24T21:12:09.647Z,21.06
2023-05-24T21:17:13.901Z,21.01
2023-05-24T21:22:16.068Z,20.96
2023-05-24T21:27:19.825Z,20.94
2023-05-24T21:32:22.208Z,20.90
2023-05-24T21:37:28.236Z,20.86
2023-05-24T21:42:30.382Z,20.82
2023-05-24T21:47:33.194Z,20.77
2023-05-24T21:52:38.088Z,20.73
2023-05-24T21:57:40.382Z,20.70
2023-05-24T22:02:42.733Z,20.65
2023-05-24T22:07:51.764Z,20.59
2023-05-24T22:12:53.854Z,20.54
2023-05-24T22:18:01.587Z,20.51
2023-05-24T22:23:06.748Z,20.45
2023-05-24T22:28:09.810Z,20.43
2023-05-24T22:33:13.873Z,20.38
2023-05-24T22:38:16.101Z,20.30
2023-05-24T22:43:18.196Z,20.27
2023-05-24T22:48:25.684Z,20.25
2023-05-24T22:53:28.430Z,20.22
2023-05-24T22:58:30.509Z,20.20
2023-05-24T23:03:32.815Z,20.16
2023-05-24T23:08:35.009Z,20.19
2023-05-24T23:13:42.442Z,20.15
2023-05-24T23:18:45.438Z,20.13
2023-05-24T23:23:49.887Z,20.09
2023-05-24T23:28:52.028Z,20.07
2023-05-24T23:33:54.278Z,20.05
2023-05-24T23:38:56.683Z,20.01
2023-05-24T23:43:58.919Z,19.98
2023-05-24T23:49:01.101Z,19.96
2023-05-24T23:54:03.241Z,19.96
2023-05-24T23:59:05.445Z,19.96
